createdAt,value
2022-12-04T00:01:22.617Z,102489.88
2022-12-04T00:03:56.215Z,102494.56
2022-12-04T00:06:24.554Z,102490.19
2022-12-04T00:08:52.177Z,102502.22
2022-12-04T00:11:22.415Z,102498.97
2022-12-04T00:13:49.742Z,102494.19
2022-12-04T00:16:22.228Z,102490.50
2022-12-04T00:18:49.718Z,102487.97
2022-12-04T00:21:18.121Z,102464.88
2022-12-04T00:23:45.418Z,102491.03
2022-12-04T00:26:17.589Z,102487.56
2022-12-04T00:28:45.439Z,102443.22
2022-12-04T00:31:16.852Z,102473.94
2022-12-04T00:33:43.980Z,102478.97
2022-12-04T00:36:13.298Z,102482.59
2022-12-04T00:38:40.926Z,102451.69
2022-12-04T00:41:12.936Z,102479.38
2022-12-04T00:43:40.027Z,102485.47
2022-12-04T00:46:07.184Z,102466.44
2022-12-04T00:48:34.258Z,102458.31
2022-12-04T00:51:13.125Z,102488.44
2022-12-04T00:53:40.448Z,102467.88
2022-12-04T00:56:10.086Z,102474.69
2022-12-04T00:58:37.373Z,102498.00
2022-12-04T01:01:08.216Z,102468.13
2022-12-04T01:03:35.649Z,102482.91
2022-12-04T01:06:03.441Z,102484.78
2022-12-04T01:08:30.824Z,102459.97
2022-12-04T01:10:57.888Z,102488.75
2022-12-04T01:13:26.076Z,102498.56
2022-12-04T01:15:53.160Z,102495.59
2022-12-04T01:18:20.279Z,102483.56
2022-12-04T01:20:49.225Z,102490.59
2022-12-04T01:23:19.570Z,102477.88
2022-12-04T01:25:59.438Z,102492.13
2022-12-04T01:28:26.720Z,102500.16
2022-12-04T01:31:21.350Z,102469.50
2022-12-04T01:33:49.252Z,102502.09
2022-12-04T01:36:19.352Z,102506.25
2022-12-04T01:38:46.401Z,102513.00
2022-12-04T01:41:15.016Z,102517.16
2022-12-04T01:43:42.575Z,102508.06
2022-12-04T01:46:10.818Z,102495.06
2022-12-04T01:48:45.607Z,102515.09
2022-12-04T01:51:20.618Z,102522.53
2022-12-04T01:54:10.970Z,102512.34
2022-12-04T01:56:49.270Z,102508.28
2022-12-04T01:59:18.906Z,102506.84
2022-12-04T02:02:03.229Z,102505.94
2022-12-04T02:04:31.293Z,102505.53
2022-12-04T02:06:58.599Z,102492.09
2022-12-04T02:09:27.056Z,102519.47
2022-12-04T02:11:54.231Z,102513.97
2022-12-04T02:14:39.775Z,102504.00
2022-12-04T02:17:25.189Z,102514.25
2022-12-04T02:20:12.116Z,102487.88
2022-12-04T02:22:48.190Z,102519.63
2022-12-04T02:25:29.215Z,102497.56
2022-12-04T02:28:15.234Z,102491.44
2022-12-04T02:30:44.363Z,102518.81
2022-12-04T02:33:22.435Z,102514.63
2022-12-04T02:35:59.710Z,102490.00
2022-12-04T02:38:51.550Z,102515.13
2022-12-04T02:41:45.004Z,102518.38
2022-12-04T02:44:26.034Z,102496.81
2022-12-04T02:46:59.517Z,102494.47
2022-12-04T02:49:40.531Z,102460.88
2022-12-04T02:52:12.332Z,102495.78
2022-12-04T02:54:43.740Z,102505.53
2022-12-04T02:57:17.062Z,102527.03
2022-12-04T02:59:47.352Z,102490.78
2022-12-04T03:02:22.491Z,102525.50
2022-12-04T03:04:51.991Z,102512.56
2022-12-04T03:07:28.199Z,102516.31
2022-12-04T03:10:00.206Z,102510.59
2022-12-04T03:12:50.773Z,102528.31
2022-12-04T03:15:32.191Z,102518.72
2022-12-04T03:18:07.413Z,102524.25
2022-12-04T03:20:36.730Z,102514.75
2022-12-04T03:23:11.615Z,102519.72
2022-12-04T03:26:04.826Z,102517.78
2022-12-04T03:29:08.164Z,102532.66
2022-12-04T03:32:16.236Z,102517.41
2022-12-04T03:34:57.658Z,102534.97
2022-12-04T03:37:31.737Z,102527.13
2022-12-04T03:40:24.082Z,102527.63
2022-12-04T03:43:06.212Z,102497.03
2022-12-04T03:45:51.218Z,102540.19
2022-12-04T03:48:28.661Z,102521.38
2022-12-04T03:51:39.405Z,102515.34
2022-12-04T03:54:14.811Z,102527.94
2022-12-04T03:56:46.968Z,102529.34
2022-12-04T03:59:40.732Z,102549.88
2022-12-04T04:02:13.310Z,102537.66
2022-12-04T04:04:43.193Z,102553.84
2022-12-04T04:07:21.789Z,102556.16
2022-12-04T04:09:52.792Z,102546.00
2022-12-04T04:12:23.466Z,102545.56
2022-12-04T04:15:15.658Z,102552.69
2022-12-04T04:18:04.285Z,102551.06
2022-12-04T04:21:12.244Z,102551.47
2022-12-04T04:24:02.487Z,102554.72
2022-12-04T04:26:35.912Z,102554.78
2022-12-04T04:29:03.139Z,102543.72
2022-12-04T04:31:36.425Z,102541.47
2022-12-04T04:34:21.663Z,102565.38
2022-12-04T04:37:20.583Z,102561.22
2022-12-04T04:40:14.177Z,102560.09
2022-12-04T04:43:18.633Z,102567.69
2022-12-04T04:45:55.812Z,102556.22
2022-12-04T04:48:36.441Z,102570.97
2022-12-04T04:51:04.430Z,102569.56
2022-12-04T04:53:39.166Z,102572.28
2022-12-04T04:56:07.515Z,102558.53
2022-12-04T04:58:35.109Z,102572.78
2022-12-04T05:01:09.148Z,102558.75
2022-12-04T05:03:36.248Z,102577.84
2022-12-04T05:06:03.238Z,102575.81
2022-12-04T05:08:30.210Z,102584.81
2022-12-04T05:10:57.303Z,102573.94
2022-12-04T05:13:24.699Z,102578.78
2022-12-04T05:16:10.595Z,102567.09
2022-12-04T05:18:38.090Z,102582.94
2022-12-04T05:21:09.691Z,102562.50
2022-12-04T05:23:36.661Z,102558.69
2022-12-04T05:26:05.246Z,102579.78
2022-12-04T05:28:32.367Z,102575.59
2022-12-04T05:31:01.151Z,102551.34
2022-12-04T05:33:28.774Z,102585.34
2022-12-04T05:36:00.226Z,102586.69
2022-12-04T05:38:27.452Z,102588.28
2022-12-04T05:40:54.351Z,102598.19
2022-12-04T05:43:21.382Z,102604.63
2022-12-04T05:45:48.387Z,102604.13
2022-12-04T05:48:15.518Z,102604.34
2022-12-04T05:50:42.748Z,102596.22
2022-12-04T05:53:09.801Z,102596.41
2022-12-04T05:55:37.101Z,102586.91
2022-12-04T05:58:04.710Z,102603.97
2022-12-04T06:00:32.504Z,102562.56
2022-12-04T06:02:59.578Z,102609.94
2022-12-04T06:05:26.560Z,102597.84
2022-12-04T06:07:53.602Z,102609.78
2022-12-04T06:10:20.643Z,102589.94
2022-12-04T06:12:47.712Z,102602.50
2022-12-04T06:15:14.697Z,102593.47
2022-12-04T06:17:41.685Z,102601.72
2022-12-04T06:20:11.648Z,102598.41
2022-12-04T06:22:39.116Z,102577.31
2022-12-04T06:25:07.170Z,102591.28
2022-12-04T06:27:34.706Z,102600.91
2022-12-04T06:30:02.491Z,102577.06
2022-12-04T06:32:31.504Z,102608.47
2022-12-04T06:34:58.566Z,102612.00
2022-12-04T06:37:26.013Z,102561.88
2022-12-04T06:39:53.307Z,102588.69
2022-12-04T06:42:20.497Z,102566.41
2022-12-04T06:44:47.562Z,102607.09
2022-12-04T06:47:14.514Z,102612.56
2022-12-04T06:49:41.568Z,102587.84
2022-12-04T06:52:08.608Z,102611.75
2022-12-04T06:54:37.562Z,102591.28
2022-12-04T06:57:04.715Z,102589.03
2022-12-04T06:59:32.800Z,102583.31
2022-12-04T07:01:59.796Z,102610.66
2022-12-04T07:04:26.789Z,102590.44
2022-12-04T07:06:56.778Z,102615.97
2022-12-04T07:09:23.803Z,102617.00
2022-12-04T07:11:50.887Z,102608.03
2022-12-04T07:14:17.841Z,102572.63
2022-12-04T07:16:45.044Z,102616.59
2022-12-04T07:19:14.301Z,102622.56
2022-12-04T07:21:42.949Z,102622.81
2022-12-04T07:24:18.248Z,102617.66
2022-12-04T07:26:46.056Z,102618.88
2022-12-04T07:29:13.531Z,102644.84
2022-12-04T07:31:40.706Z,102628.53
2022-12-04T07:34:08.064Z,102623.16
2022-12-04T07:36:35.227Z,102639.47
2022-12-04T07:39:02.490Z,102635.13
2022-12-04T07:41:29.532Z,102617.00
2022-12-04T07:43:56.501Z,102630.66
2022-12-04T07:46:26.583Z,102641.28
2022-12-04T07:48:57.548Z,102631.19
2022-12-04T07:51:27.204Z,102638.59
2022-12-04T07:53:55.117Z,102635.44
2022-12-04T07:56:22.236Z,102642.69
2022-12-04T07:58:49.359Z,102642.69
2022-12-04T08:01:19.565Z,102648.53
2022-12-04T08:03:49.176Z,102623.38
2022-12-04T08:06:18.353Z,102617.84
2022-12-04T08:08:46.215Z,102620.25
2022-12-04T08:11:16.147Z,102609.72
2022-12-04T08:13:43.814Z,102636.84
2022-12-04T08:16:12.175Z,102624.13
2022-12-04T08:18:40.085Z,102582.88
2022-12-04T08:21:12.938Z,102625.88
2022-12-04T08:23:41.703Z,102611.38
2022-12-04T08:26:09.645Z,102621.56
2022-12-04T08:28:37.501Z,102614.16
2022-12-04T08:31:15.465Z,102613.88
2022-12-04T08:33:44.332Z,102620.63
2022-12-04T08:36:13.819Z,102621.56
2022-12-04T08:38:41.208Z,102619.69
2022-12-04T08:41:11.154Z,102615.19
2022-12-04T08:43:41.807Z,102580.44
2022-12-04T08:46:11.919Z,102624.44
2022-12-04T08:48:39.203Z,102601.03
2022-12-04T08:51:10.084Z,102625.63
2022-12-04T08:53:37.303Z,102629.19
2022-12-04T08:56:05.078Z,102612.00
2022-12-04T08:58:32.256Z,102606.44
2022-12-04T09:01:12.280Z,102582.00
2022-12-04T09:03:39.945Z,102624.16
2022-12-04T09:06:08.667Z,102591.69
2022-12-04T09:08:36.186Z,102617.78
2022-12-04T09:11:11.548Z,102626.44
2022-12-04T09:13:41.210Z,102617.28
2022-12-04T09:16:11.795Z,102617.38
2022-12-04T09:18:40.082Z,102614.44
2022-12-04T09:21:09.562Z,102628.41
2022-12-04T09:23:38.764Z,102619.34
2022-12-04T09:26:16.202Z,102611.47
2022-12-04T09:28:43.284Z,102616.38
2022-12-04T09:31:10.327Z,102619.25
2022-12-04T09:33:37.482Z,102617.75
2022-12-04T09:36:04.711Z,102619.53
2022-12-04T09:38:31.872Z,102618.19
2022-12-04T09:41:18.996Z,102620.19
2022-12-04T09:44:18.520Z,102598.63
2022-12-04T09:46:52.947Z,102603.78
2022-12-04T09:49:28.549Z,102601.19
2022-12-04T09:52:01.865Z,102607.69
2022-12-04T09:54:35.275Z,102606.34
2022-12-04T09:57:12.561Z,102607.78
2022-12-04T09:59:39.604Z,102578.59
2022-12-04T10:02:09.788Z,102596.88
2022-12-04T10:04:36.818Z,102586.41
2022-12-04T10:07:27.420Z,102597.16
2022-12-04T10:10:19.993Z,102592.81
2022-12-04T10:12:53.010Z,102601.03
2022-12-04T10:15:45.314Z,102585.78
2022-12-04T10:18:50.985Z,102590.31
2022-12-04T10:21:50.473Z,102582.31
2022-12-04T10:24:34.919Z,102563.72
2022-12-04T10:27:09.982Z,102585.28
2022-12-04T10:29:40.597Z,102571.16
2022-12-04T10:32:34.324Z,102581.13
2022-12-04T10:35:42.148Z,102544.44
2022-12-04T10:38:49.814Z,102584.53
2022-12-04T10:41:29.328Z,102572.06
2022-12-04T10:43:56.571Z,102567.31
2022-12-04T10:46:34.811Z,102553.72
2022-12-04T10:49:12.633Z,102580.75
2022-12-04T10:51:41.880Z,102555.44
2022-12-04T10:54:33.770Z,102560.44
2022-12-04T10:57:02.125Z,102573.22
2022-12-04T10:59:30.660Z,102579.09
2022-12-04T11:02:25.913Z,102564.38
2022-12-04T11:04:57.196Z,102581.44
2022-12-04T11:07:29.592Z,102570.34
2022-12-04T11:09:59.533Z,102554.72
2022-12-04T11:12:26.562Z,102569.34
2022-12-04T11:15:14.732Z,102568.16
2022-12-04T11:17:41.813Z,102558.41
2022-12-04T11:20:16.944Z,102562.97
2022-12-04T11:22:51.388Z,102569.34
2022-12-04T11:25:20.659Z,102565.03
2022-12-04T11:27:52.500Z,102548.41
2022-12-04T11:30:32.649Z,102562.31
2022-12-04T11:33:00.568Z,102527.16
2022-12-04T11:35:29.906Z,102555.94
2022-12-04T11:37:59.148Z,102550.47
2022-12-04T11:40:27.394Z,102554.09
2022-12-04T11:43:02.110Z,102559.09
2022-12-04T11:45:29.286Z,102547.38
2022-12-04T11:47:59.497Z,102547.38
2022-12-04T11:50:46.586Z,102548.03
2022-12-04T11:53:20.718Z,102552.72
2022-12-04T11:56:06.517Z,102551.22
2022-12-04T11:58:55.490Z,102553.78
2022-12-04T12:01:38.697Z,102551.78
2022-12-04T12:04:27.224Z,102549.84
2022-12-04T12:07:16.115Z,102549.19
2022-12-04T12:10:05.007Z,102552.38
2022-12-04T12:13:02.002Z,102550.97
2022-12-04T12:15:57.207Z,102547.94
2022-12-04T12:18:42.809Z,102551.41
2022-12-04T12:21:20.890Z,102543.75
2022-12-04T12:23:56.755Z,102543.94
2022-12-04T12:26:34.083Z,102547.31
2022-12-04T12:29:28.943Z,102532.75
2022-12-04T12:32:13.219Z,102552.16
2022-12-04T12:34:45.710Z,102546.69
2022-12-04T12:37:26.111Z,102549.25
2022-12-04T12:40:26.498Z,102541.22
2022-12-04T12:43:01.567Z,102541.97
2022-12-04T12:45:44.661Z,102554.06
2022-12-04T12:48:19.430Z,102519.63
2022-12-04T12:51:08.991Z,102534.97
2022-12-04T12:53:44.626Z,102537.69
2022-12-04T12:56:13.301Z,102515.31
2022-12-04T12:58:46.620Z,102556.97
2022-12-04T13:01:25.495Z,102562.78
2022-12-04T13:04:05.848Z,102561.84
2022-12-04T13:07:06.938Z,102562.72
2022-12-04T13:09:37.722Z,102561.56
2022-12-04T13:12:16.922Z,102550.38
2022-12-04T13:14:48.864Z,102570.81
2022-12-04T13:17:24.459Z,102562.69
2022-12-04T13:19:55.612Z,102556.09
2022-12-04T13:22:43.815Z,102564.81
2022-12-04T13:25:37.131Z,102560.78
2022-12-04T13:28:23.008Z,102565.09
2022-12-04T13:31:27.223Z,102575.44
2022-12-04T13:33:59.202Z,102549.94
2022-12-04T13:36:32.614Z,102566.41
2022-12-04T13:39:19.112Z,102560.53
2022-12-04T13:41:46.859Z,102569.47
2022-12-04T13:44:21.497Z,102552.41
2022-12-04T13:47:09.609Z,102566.63
2022-12-04T13:49:39.026Z,102567.16
2022-12-04T13:52:37.355Z,102568.44
2022-12-04T13:55:04.876Z,102561.63
2022-12-04T13:57:31.899Z,102538.88
2022-12-04T14:00:24.571Z,102559.13
2022-12-04T14:02:55.410Z,102540.50
2022-12-04T14:05:41.272Z,102556.91
2022-12-04T14:08:24.440Z,102544.00
2022-12-04T14:11:06.032Z,102550.63
2022-12-04T14:13:51.309Z,102560.91
2022-12-04T14:16:29.725Z,102552.84
2022-12-04T14:18:59.791Z,102562.69
2022-12-04T14:21:26.967Z,102552.06
2022-12-04T14:23:53.959Z,102555.88
2022-12-04T14:27:09.541Z,102560.56
2022-12-04T14:29:36.992Z,102552.31
2022-12-04T14:32:16.586Z,102574.56
2022-12-04T14:34:44.601Z,102570.66
2022-12-04T14:37:43.865Z,102546.13
2022-12-04T14:40:23.676Z,102567.75
2022-12-04T14:42:51.527Z,102560.59
2022-12-04T14:45:28.103Z,102565.31
2022-12-04T14:48:09.897Z,102563.97
2022-12-04T14:50:47.575Z,102563.81
2022-12-04T14:53:52.443Z,102556.47
2022-12-04T14:56:51.385Z,102560.22
2022-12-04T14:59:21.751Z,102561.69
2022-12-04T15:01:51.035Z,102527.16
2022-12-04T15:04:26.642Z,102553.41
2022-12-04T15:07:00.008Z,102552.31
2022-12-04T15:09:47.093Z,102542.78
2022-12-04T15:12:33.744Z,102566.72
2022-12-04T15:15:25.887Z,102559.38
2022-12-04T15:18:15.297Z,102557.53
2022-12-04T15:20:44.134Z,102568.72
2022-12-04T15:23:17.110Z,102556.94
2022-12-04T15:25:47.457Z,102562.31
2022-12-04T15:28:20.133Z,102536.47
2022-12-04T15:30:49.250Z,102568.66
2022-12-04T15:33:21.863Z,102561.03
2022-12-04T15:35:58.239Z,102552.84
2022-12-04T15:38:25.771Z,102551.63
2022-12-04T15:40:58.775Z,102555.31
2022-12-04T15:43:31.592Z,102558.75
2022-12-04T15:45:59.595Z,102558.59
2022-12-04T15:48:31.792Z,102566.00
2022-12-04T15:51:05.818Z,102559.56
2022-12-04T15:53:37.719Z,102559.19
2022-12-04T15:56:16.296Z,102546.34
2022-12-04T15:58:58.016Z,102560.38
2022-12-04T16:01:25.922Z,102555.81
2022-12-04T16:03:56.000Z,102538.81
2022-12-04T16:06:30.151Z,102554.28
2022-12-04T16:09:26.264Z,102553.19
2022-12-04T16:12:03.132Z,102554.53
2022-12-04T16:14:30.462Z,102555.72
2022-12-04T16:17:06.141Z,102553.19
2022-12-04T16:19:37.595Z,102541.25
2022-12-04T16:22:13.203Z,102557.38
2022-12-04T16:24:40.582Z,102555.50
2022-12-04T16:27:13.603Z,102557.38
2022-12-04T16:29:40.932Z,102504.00
2022-12-04T16:32:16.797Z,102549.63
2022-12-04T16:34:44.166Z,102538.22
2022-12-04T16:37:17.332Z,102556.09
2022-12-04T16:39:45.023Z,102530.38
2022-12-04T16:42:24.329Z,102557.53
2022-12-04T16:44:52.110Z,102545.53
2022-12-04T16:47:20.354Z,102552.97
2022-12-04T16:49:51.946Z,102531.16
2022-12-04T16:52:19.828Z,102509.16
2022-12-04T16:54:47.567Z,102545.00
2022-12-04T16:57:14.711Z,102543.06
2022-12-04T16:59:42.588Z,102515.69
2022-12-04T17:02:23.630Z,102552.31
2022-12-04T17:04:55.818Z,102547.94
2022-12-04T17:07:24.906Z,102538.06
2022-12-04T17:09:52.037Z,102552.81
2022-12-04T17:12:19.153Z,102549.13
2022-12-04T17:14:46.370Z,102523.06
2022-12-04T17:17:13.566Z,102544.34
2022-12-04T17:19:41.081Z,102504.72
2022-12-04T17:22:08.425Z,102492.38
2022-12-04T17:24:38.626Z,102531.38
2022-12-04T17:27:13.136Z,102547.88
2022-12-04T17:29:40.820Z,102550.03
2022-12-04T17:32:11.270Z,102536.03
2022-12-04T17:34:38.546Z,102546.63
2022-12-04T17:37:06.017Z,102553.06
2022-12-04T17:39:33.410Z,102546.13
2022-12-04T17:42:00.612Z,102525.06
2022-12-04T17:44:28.043Z,102521.81
2022-12-04T17:46:55.580Z,102540.44
2022-12-04T17:49:23.601Z,102538.59
2022-12-04T17:51:51.008Z,102532.41
2022-12-04T17:54:20.416Z,102516.91
2022-12-04T17:56:53.399Z,102523.66
2022-12-04T17:59:23.650Z,102537.56
2022-12-04T18:01:51.128Z,102535.72
2022-12-04T18:04:19.630Z,102539.88
2022-12-04T18:06:48.297Z,102533.25
2022-12-04T18:09:17.606Z,102524.31
2022-12-04T18:11:47.488Z,102481.66
2022-12-04T18:14:18.160Z,102513.22
2022-12-04T18:16:48.120Z,102505.50
2022-12-04T18:19:16.857Z,102513.50
2022-12-04T18:21:44.493Z,102529.47
2022-12-04T18:24:13.133Z,102514.41
2022-12-04T18:26:46.914Z,102428.84
2022-12-04T18:29:17.930Z,102491.53
2022-12-04T18:31:46.047Z,102524.84
2022-12-04T18:34:14.393Z,102519.59
2022-12-04T18:36:42.552Z,102536.19
2022-12-04T18:39:13.998Z,102529.28
2022-12-04T18:41:43.826Z,102494.91
2022-12-04T18:44:12.391Z,102449.97
2022-12-04T18:46:41.315Z,102508.69
2022-12-04T18:49:10.074Z,102517.34
2022-12-04T18:51:40.236Z,102519.88
2022-12-04T18:54:18.135Z,102499.97
2022-12-04T18:56:45.831Z,102508.63
2022-12-04T18:59:24.293Z,102506.34
2022-12-04T19:01:52.178Z,102503.81
2022-12-04T19:04:22.316Z,102501.28
2022-12-04T19:06:55.245Z,102493.00
2022-12-04T19:09:47.093Z,102502.59
2022-12-04T19:12:13.219Z,102500.34
2022-12-04T19:14:40.646Z,102489.81
2022-12-04T19:17:08.383Z,102504.94
2022-12-04T19:19:35.733Z,102495.06
2022-12-04T19:22:02.882Z,102503.09
2022-12-04T19:24:30.024Z,102507.03
2022-12-04T19:26:57.213Z,102461.78
2022-12-04T19:29:24.855Z,102498.94
2022-12-04T19:31:57.615Z,102466.59
2022-12-04T19:34:26.191Z,102492.44
2022-12-04T19:36:55.117Z,102499.34
2022-12-04T19:39:22.767Z,102489.25
2022-12-04T19:41:51.895Z,102483.34
2022-12-04T19:47:08.603Z,102487.00
2022-12-04T19:49:35.773Z,102489.38
2022-12-04T19:52:03.291Z,102470.13
2022-12-04T19:54:30.485Z,102459.56
2022-12-04T19:57:06.771Z,102492.09
2022-12-04T19:59:37.693Z,102480.09
2022-12-04T20:02:08.139Z,102478.78
2022-12-04T20:04:35.429Z,102494.22
2022-12-04T20:07:02.494Z,102460.94
2022-12-04T20:09:29.414Z,102469.50
2022-12-04T20:11:56.615Z,102479.28
2022-12-04T20:14:24.625Z,102470.22
2022-12-04T20:16:52.793Z,102485.34
2022-12-04T20:19:20.541Z,102470.28
2022-12-04T20:21:48.049Z,102478.84
2022-12-04T20:24:16.625Z,102427.84
2022-12-04T20:26:46.623Z,102451.78
2022-12-04T20:29:15.855Z,102477.91
2022-12-04T20:31:45.427Z,102490.41
2022-12-04T20:34:15.368Z,102479.34
2022-12-04T20:36:43.563Z,102488.56
2022-12-04T20:39:12.534Z,102482.69
2022-12-04T20:41:39.907Z,102475.78
2022-12-04T20:44:09.503Z,102476.47
2022-12-04T20:46:38.663Z,102491.91
2022-12-04T20:49:07.954Z,102491.00
2022-12-04T20:51:40.811Z,102485.72
2022-12-04T20:54:10.978Z,102480.91
2022-12-04T20:56:38.560Z,102483.25
2022-12-04T20:59:09.003Z,102486.22
2022-12-04T21:01:36.950Z,102469.00
2022-12-04T21:04:04.958Z,102488.31
2022-12-04T21:06:36.065Z,102490.34
2022-12-04T21:09:09.160Z,102490.13
2022-12-04T21:11:53.922Z,102471.03
2022-12-04T21:14:44.301Z,102464.75
2022-12-04T21:17:16.840Z,102486.06
2022-12-04T21:19:44.452Z,102480.09
2022-12-04T21:22:11.654Z,102461.22
2022-12-04T21:24:39.381Z,102481.41
2022-12-04T21:27:08.059Z,102471.25
2022-12-04T21:29:37.062Z,102466.19
2022-12-04T21:32:05.753Z,102471.97
2022-12-04T21:34:33.303Z,102462.09
2022-12-04T21:37:00.303Z,102450.25
2022-12-04T21:39:27.346Z,102458.56
2022-12-04T21:42:13.024Z,102465.91
2022-12-04T21:44:40.176Z,102454.88
2022-12-04T21:47:07.226Z,102447.97
2022-12-04T21:49:34.173Z,102452.78
2022-12-04T21:52:04.036Z,102435.09
2022-12-04T21:54:30.957Z,102447.44
2022-12-04T21:56:58.166Z,102422.25
2022-12-04T21:59:26.189Z,102448.81
2022-12-04T22:01:54.589Z,102437.41
2022-12-04T22:04:22.088Z,102424.88
2022-12-04T22:06:49.294Z,102422.66
2022-12-04T22:09:16.533Z,102445.16
2022-12-04T22:11:44.017Z,102396.53
2022-12-04T22:14:12.121Z,102428.69
2022-12-04T22:16:42.751Z,102419.25
2022-12-04T22:19:12.581Z,102423.81
2022-12-04T22:21:40.294Z,102426.97
2022-12-04T22:24:27.303Z,102406.84
2022-12-04T22:26:54.462Z,102402.66
2022-12-04T22:29:51.622Z,102423.09
2022-12-04T22:32:08.770Z,102424.72
2022-12-04T22:34:35.656Z,102406.13
2022-12-04T22:37:02.522Z,102411.19
2022-12-04T22:39:29.514Z,102408.72
2022-12-04T22:41:56.614Z,102383.97
2022-12-04T22:44:23.633Z,102402.59
2022-12-04T22:46:50.773Z,102405.34
2022-12-04T22:49:17.940Z,102398.22
2022-12-04T22:51:44.858Z,102395.81
2022-12-04T22:54:15.436Z,102410.03
2022-12-04T22:56:44.292Z,102393.53
2022-12-04T22:59:11.552Z,102388.03
2022-12-04T23:01:38.786Z,102385.94
2022-12-04T23:04:05.910Z,102411.72
2022-12-04T23:06:34.357Z,102402.25
2022-12-04T23:09:05.501Z,102397.19
2022-12-04T23:11:32.414Z,102358.72
2022-12-04T23:14:01.899Z,102366.75
2022-12-04T23:16:32.084Z,102375.31
2022-12-04T23:18:59.514Z,102390.22
2022-12-04T23:21:27.626Z,102395.28
2022-12-04T23:23:55.571Z,102404.66
2022-12-04T23:26:30.092Z,102399.84
2022-12-04T23:28:57.903Z,102372.56
2022-12-04T23:31:25.719Z,102388.16
2022-12-04T23:33:52.741Z,102391.81
2022-12-04T23:36:20.259Z,102395.41
2022-12-04T23:38:47.785Z,102395.84
2022-12-04T23:41:17.540Z,102383.94
2022-12-04T23:43:45.467Z,102386.44
2022-12-04T23:46:14.423Z,102385.75
2022-12-04T23:48:43.042Z,102386.47
2022-12-04T23:51:11.709Z,102389.00
2022-12-04T23:53:39.132Z,102373.94
2022-12-04T23:56:20.074Z,102378.44
2022-12-04T23:58:49.010Z,102364.22
